Dallas Love Field Dallas US
ICAO: KDAL
IATA: DAL
Category: Large
Scheduled Services: Yes

Elevation: 487 ft
TransAlt. 18000 ft.

Airport Communications:
RGNL APP:124.3
ATIS:120.15
CLNC DEL:127.9
RGNL DEP:118.55
GND:121.75
FORT WORTH RDO:122.3
LOVE TWR:118.7
UNICOM:122.95

KDAL Zoom In..

Runways:

(A) RW 13L length 7752 ft width 150 ft
ILS 111.50 / hdg 130

(B) RW 13R length 8800 ft width 150 ft
ILS 111.10 / hdg 130

(C) RW 18 length 6147 ft width 151 ft
---- / hdg 180

(D) RW 31L length 8800 ft width 150 ft
ILS 111.10 / hdg 310

(E) RW 31R length 7752 ft width 150 ft
ILS 111.50 / hdg 310

(F) RW 36 length 6147 ft width 151 ft
---- / hdg 360

Location; KDAL
Day. 19 / Time. 19.53 Zulu
* Altimeter: 30.32
* Temperature: 21° c. 69.8°f.
* Wind from: 010° Speed 12 kn with Gusts up to 20 kn.
Dewpoint: 01° c.
Visibility: 10 Statute Miles.
Clouds: Scattered 25000 ft.
Clouds: Broken 3000 ft.

KDAL 191953Z 01012G20KT 10SM SCT250 BKN300 21/01 A3032 RMK AO2 SLP264 T02110006


Wind From 010°
Speed 12 kn.

  YouTube Music Video
 
jpsmedia.com for Web Design  worldairports.se 2018   terms of use